Time;durP1;ratioP1;P1;durP2;ratioP2;P2;SDS_P1;SDS_P2;PMS_P1;PMS_P2;Temp;Humidity;BMP_temperature;BMP_pressure;BME280_temperature;BME280_humidity;BME280_pressure;Samples;Min_cycle;Max_cycle;Signal;HPM_P1;HPM_P2
2021/10/13 00:01:34;;;;;;;1999.90;999.90;;;;;;;2.67;54.94;101438.56;5058338;27;98108;-70
2021/10/13 00:04:01;;;;;;;1999.90;999.90;;;;;;;2.64;54.24;101436.63;5040811;27;97368;-71
2021/10/13 00:06:29;;;;;;;1999.90;999.90;;;;;;;2.61;54.15;101438.16;5058402;27;97238;-69
2021/10/13 00:08:58;;;;;;;1999.90;999.90;;;;;;;2.58;54.72;101437.97;5041290;27;99042;-72
2021/10/13 00:11:26;;;;;;;1999.90;999.90;;;;;;;2.57;54.56;101444.03;5059647;27;97819;-72
2021/10/13 00:13:54;;;;;;;1999.90;999.90;;;;;;;2.54;54.47;101442.13;5041624;27;98897;-71
2021/10/13 00:16:22;;;;;;;1999.90;999.90;;;;;;;2.58;54.16;101448.47;5057385;27;99295;-70
2021/10/13 00:18:50;;;;;;;1999.90;999.90;;;;;;;2.63;54.45;101447.03;5058509;27;101085;-70
2021/10/13 00:21:18;;;;;;;1999.90;999.90;;;;;;;2.61;54.37;101440.78;5060652;27;96878;-70
2021/10/13 00:23:46;;;;;;;1999.90;999.90;;;;;;;2.59;54.20;101445.03;5056216;27;97122;-71
2021/10/13 00:26:15;;;;;;;1999.90;999.90;;;;;;;2.56;54.15;101444.84;5058263;27;99263;-71
2021/10/13 00:28:43;;;;;;;1999.90;999.90;;;;;;;2.61;53.66;101440.78;5059194;27;97720;-70
2021/10/13 00:31:10;;;;;;;1999.90;999.90;;;;;;;2.67;53.61;101438.56;5041640;27;97967;-70
2021/10/13 00:33:38;;;;;;;1999.90;999.90;;;;;;;2.72;53.61;101445.00;5057845;27;98060;-71
2021/10/13 00:36:06;;;;;;;1999.90;999.90;;;;;;;2.75;53.39;101447.81;5058007;27;99586;-71
2021/10/13 00:38:34;;;;;;;1999.90;999.90;;;;;;;2.80;53.12;101435.88;5058567;27;97739;-72
2021/10/13 00:41:02;;;;;;;1999.90;999.90;;;;;;;2.81;53.88;101442.94;5057475;27;97828;-74
2021/10/13 00:43:31;;;;;;;1999.90;999.90;;;;;;;2.78;53.75;101442.75;5057609;27;98136;-73
2021/10/13 00:45:59;;;;;;;1999.90;999.90;;;;;;;2.70;55.05;101444.91;5058207;27;97433;-70
2021/10/13 00:48:27;;;;;;;1999.90;999.90;;;;;;;2.68;54.86;101448.22;5056286;27;99048;-73
2021/10/13 00:50:55;;;;;;;1999.90;999.90;;;;;;;2.64;54.03;101454.09;5058215;27;97305;-71
2021/10/13 00:53:23;;;;;;;1999.90;999.90;;;;;;;2.63;54.19;101457.56;5059349;27;96925;-72
2021/10/13 00:55:52;;;;;;;1999.90;999.90;;;;;;;2.65;54.29;101455.94;5040481;27;99569;-72
2021/10/13 00:58:20;;;;;;;1999.90;999.90;;;;;;;2.67;54.35;101454.31;5057235;27;99287;-72
2021/10/13 01:00:55;;;;;;;1999.90;999.90;;;;;;;2.67;55.31;101456.94;5058823;27;97964;-71
2021/10/13 01:03:29;;;;;;;1999.90;999.90;;;;;;;2.66;53.98;101456.03;5057121;27;97670;-70
2021/10/13 01:06:06;;;;;;;1999.90;999.90;;;;;;;2.64;54.58;101464.59;5058133;27;97675;-71
2021/10/13 01:08:42;;;;;;;1999.90;999.90;;;;;;;2.66;54.06;101463.00;5056718;27;100545;-69
2021/10/13 01:11:21;;;;;;;1999.90;999.90;;;;;;;2.64;54.55;101469.88;5059684;27;97835;-70
2021/10/13 01:13:56;;;;;;;1999.90;999.90;;;;;;;2.66;53.99;101465.63;5057972;27;98070;-72
2021/10/13 01:16:29;;;;;;;1999.90;999.90;;;;;;;2.68;54.30;101474.50;5058722;27;98959;-70
2021/10/13 01:19:01;;;;;;;1999.90;999.90;;;;;;;2.66;54.31;101481.38;5058440;27;96772;-70
2021/10/13 01:21:43;;;;;;;1999.90;999.90;;;;;;;2.61;55.58;101480.19;5058594;27;97576;-70
2021/10/13 01:24:22;;;;;;;1999.90;999.90;;;;;;;2.61;54.73;101485.44;5057209;27;97190;-71
2021/10/13 01:26:57;;;;;;;1999.90;999.90;;;;;;;2.60;54.66;101486.28;5039201;27;98129;-70
2021/10/13 01:29:27;;;;;;;1999.90;999.90;;;;;;;2.58;55.17;101487.88;5039922;27;101452;-70
2021/10/13 01:32:00;;;;;;;1999.90;999.90;;;;;;;2.55;55.37;101485.97;5042155;27;98014;-71
2021/10/13 01:34:30;;;;;;;1999.90;999.90;;;;;;;2.52;55.48;101487.47;5056601;27;97563;-70
2021/10/13 01:37:06;;;;;;;1999.90;999.90;;;;;;;2.50;55.53;101489.09;5040344;27;100015;-70
2021/10/13 01:39:36;;;;;;;1999.90;999.90;;;;;;;2.52;55.26;101492.75;5057976;27;99944;-72
2021/10/13 01:42:05;;;;;;;1999.90;999.90;;;;;;;2.52;53.95;101482.22;5041238;27;98721;-70
2021/10/13 01:44:39;;;;;;;1999.90;999.90;;;;;;;2.57;54.15;101491.31;5057889;27;97271;-74
2021/10/13 01:47:08;;;;;;;1999.90;999.90;;;;;;;2.57;54.08;101486.06;5057918;27;98069;-73
2021/10/13 01:49:37;;;;;;;1999.90;999.90;;;;;;;2.60;54.14;101495.03;5059657;27;96851;-71
2021/10/13 01:52:05;;;;;;;1999.90;999.90;;;;;;;2.52;54.49;101490.13;5058034;27;96905;-71
2021/10/13 01:54:36;;;;;;;1999.90;999.90;;;;;;;2.51;54.59;101493.56;5056730;27;97518;-72
2021/10/13 01:57:05;;;;;;;1999.90;999.90;;;;;;;2.50;54.54;101502.22;5039439;27;99264;-71
2021/10/13 01:59:33;;;;;;;1999.90;999.90;;;;;;;2.46;54.90;101505.47;5057092;27;97594;-70
2021/10/13 02:02:03;;;;;;;1999.90;999.90;;;;;;;2.40;54.70;101503.34;5051617;27;97688;-71
2021/10/13 02:04:32;;;;;;;1999.90;999.90;;;;;;;2.43;54.52;101505.28;5054184;27;97793;-72
2021/10/13 02:07:00;;;;;;;1999.90;999.90;;;;;;;2.40;54.78;101510.34;5054511;27;99692;-71
2021/10/13 02:09:29;;;;;;;1999.90;999.90;;;;;;;2.36;55.01;101517.13;5055927;27;98304;-71
2021/10/13 02:11:58;;;;;;;1999.90;999.90;;;;;;;2.31;55.03;101509.75;5039614;27;97336;-72
2021/10/13 02:14:27;;;;;;;1999.90;999.90;;;;;;;2.27;55.09;101513.88;5056037;27;98900;-71
2021/10/13 02:16:57;;;;;;;1999.90;999.90;;;;;;;2.22;55.10;101517.91;5039460;27;99823;-72
2021/10/13 02:19:28;;;;;;;1999.90;999.90;;;;;;;2.19;54.21;101516.00;5059322;27;97410;-71
2021/10/13 02:21:57;;;;;;;1999.90;999.90;;;;;;;2.18;54.30;101515.91;5039553;27;97531;-70
2021/10/13 02:24:28;;;;;;;1999.90;999.90;;;;;;;2.14;54.85;101511.25;5056305;27;96960;-72
2021/10/13 02:27:00;;;;;;;1999.90;999.90;;;;;;;2.12;54.85;101516.41;5057616;27;97707;-71
2021/10/13 02:29:28;;;;;;;1999.90;999.90;;;;;;;2.10;54.62;101510.16;5039865;27;99863;-72
2021/10/13 02:31:56;;;;;;;1999.90;999.90;;;;;;;2.09;54.00;101520.56;5057808;27;97688;-72
2021/10/13 02:34:24;;;;;;;1999.90;999.90;;;;;;;2.03;54.76;101518.38;5039934;27;97239;-72
2021/10/13 02:36:53;;;;;;;1999.90;999.90;;;;;;;2.00;54.40;101512.91;5038195;27;98214;-70
2021/10/13 02:39:21;;;;;;;1999.90;999.90;;;;;;;1.98;54.86;101527.63;5055852;27;98127;-68
2021/10/13 02:41:49;;;;;;;1999.90;999.90;;;;;;;1.95;54.28;101524.81;5059906;27;97475;-73
2021/10/13 02:44:16;;;;;;;1999.90;999.90;;;;;;;1.96;54.55;101525.75;5061631;27;97282;-72
2021/10/13 02:46:47;;;;;;;1999.90;999.90;;;;;;;1.97;54.41;101527.53;5058221;27;100680;-73
2021/10/13 02:49:21;;;;;;;1999.90;999.90;;;;;;;1.93;55.24;101531.69;5062058;27;97660;-72
2021/10/13 02:51:55;;;;;;;1999.90;999.90;;;;;;;1.95;54.24;101529.16;5060343;27;97436;-72
2021/10/13 02:54:26;;;;;;;1999.90;999.90;;;;;;;1.94;54.49;101530.91;5060751;27;97610;-71
2021/10/13 02:56:58;;;;;;;1999.90;999.90;;;;;;;1.93;55.40;101541.25;5059544;27;98542;-71
2021/10/13 02:59:31;;;;;;;1999.90;999.90;;;;;;;1.88;55.73;101538.34;5062912;27;97794;-72
2021/10/13 03:02:03;;;;;;;1999.90;999.90;;;;;;;1.84;55.33;101541.56;5060268;27;98723;-72
2021/10/13 03:04:35;;;;;;;1999.90;999.90;;;;;;;1.86;54.76;101539.03;5041203;27;96901;-71
2021/10/13 03:07:06;;;;;;;1999.90;999.90;;;;;;;1.89;55.49;101539.25;5060775;27;97846;-72
2021/10/13 03:09:36;;;;;;;1999.90;999.90;;;;;;;2.35;54.43;101544.16;5076295;27;97906;-72
2021/10/13 03:12:06;;;;;;;1999.90;999.90;;;;;;;2.09;55.22;101547.69;5059325;27;97789;-73
2021/10/13 03:14:34;;;;;;;1999.90;999.90;;;;;;;2.02;55.36;101552.38;5061987;27;97056;-71
2021/10/13 03:17:02;;;;;;;1999.90;999.90;;;;;;;2.01;55.88;101553.19;5061612;27;97537;-72
2021/10/13 03:19:33;;;;;;;1999.90;999.90;;;;;;;1.98;56.14;101561.75;5060318;27;100414;-70
2021/10/13 03:22:01;;;;;;;1999.90;999.90;;;;;;;1.96;55.94;101562.50;5060444;27;97318;-71
2021/10/13 03:24:31;;;;;;;1999.90;999.90;;;;;;;1.96;55.19;101566.00;5060289;27;97501;-72
2021/10/13 03:26:58;;;;;;;1999.90;999.90;;;;;;;1.99;55.30;101562.69;5060220;27;97671;-72
2021/10/13 03:29:26;;;;;;;1999.90;999.90;;;;;;;1.99;55.83;101566.22;5059715;27;99225;-72
2021/10/13 03:31:54;;;;;;;1999.90;999.90;;;;;;;1.97;55.46;101565.22;5058549;27;96942;-71
2021/10/13 03:34:22;;;;;;;1999.90;999.90;;;;;;;1.96;55.35;101573.00;5059583;27;97617;-73
2021/10/13 03:36:51;;;;;;;1999.90;999.90;;;;;;;1.92;55.75;101577.13;5059529;27;98040;-71
2021/10/13 03:39:20;;;;;;;1999.90;999.90;;;;;;;1.92;55.72;101577.13;5043356;27;98753;-70
2021/10/13 03:41:49;;;;;;;1999.90;999.90;;;;;;;1.92;55.33;101579.75;5058644;27;96834;-71
2021/10/13 03:44:16;;;;;;;1999.90;999.90;;;;;;;1.90;55.25;101583.97;5060715;27;97412;-72
2021/10/13 03:46:44;;;;;;;1999.90;999.90;;;;;;;1.88;55.52;101582.97;5059130;27;101376;-69
2021/10/13 03:49:12;;;;;;;1999.90;999.90;;;;;;;1.87;54.75;101583.75;5058499;27;99163;-72
2021/10/13 03:51:40;;;;;;;1999.90;999.90;;;;;;;1.86;55.73;101588.88;5058474;27;98069;-71
2021/10/13 03:54:10;;;;;;;1999.90;999.90;;;;;;;1.81;55.52;101592.91;5043259;27;97407;-73
2021/10/13 03:56:38;;;;;;;1999.90;999.90;;;;;;;1.82;55.08;101595.66;5060488;27;97810;-71
2021/10/13 03:59:07;;;;;;;1999.90;999.90;;;;;;;1.79;55.42;101595.44;5060217;27;97997;-70
2021/10/13 04:01:35;;;;;;;1999.90;999.90;;;;;;;1.81;55.22;101599.09;5053036;27;98000;-70
2021/10/13 04:04:03;;;;;;;1999.90;999.90;;;;;;;1.77;55.04;101602.28;5054817;27;96951;-70
2021/10/13 04:06:31;;;;;;;1999.90;999.90;;;;;;;1.76;55.30;101607.44;5055976;27;98967;-70
2021/10/13 04:08:59;;;;;;;1999.90;999.90;;;;;;;1.68;55.27;101604.28;5040310;27;98110;-69
2021/10/13 04:11:27;;;;;;;1999.90;999.90;;;;;;;1.63;55.17;101599.53;5056120;27;97536;-70
2021/10/13 04:13:55;;;;;;;1999.90;999.90;;;;;;;1.55;55.66;101604.22;5059197;27;97704;-71
2021/10/13 04:16:24;;;;;;;1999.90;999.90;;;;;;;1.53;55.47;101613.69;5060701;27;99478;-69
2021/10/13 04:18:52;;;;;;;1999.90;999.90;;;;;;;1.49;55.04;101603.78;5059569;27;98760;-70
2021/10/13 04:21:20;;;;;;;1999.90;999.90;;;;;;;1.47;55.42;101605.38;5059050;27;97739;-72
2021/10/13 04:23:48;;;;;;;1999.90;999.90;;;;;;;1.46;55.42;101610.53;5057756;27;97172;-70
2021/10/13 04:26:16;;;;;;;1999.90;999.90;;;;;;;1.42;55.47;101614.66;5043013;27;98974;-70
2021/10/13 04:28:43;;;;;;;1999.90;999.90;;;;;;;1.36;55.59;101611.59;5060879;27;98561;-71
2021/10/13 04:31:11;;;;;;;1999.90;999.90;;;;;;;1.32;56.02;101606.94;5043209;27;97194;-70
2021/10/13 04:33:40;;;;;;;1999.90;999.90;;;;;;;1.26;55.41;101614.38;5059179;27;97612;-70
2021/10/13 04:36:08;;;;;;;1999.90;999.90;;;;;;;1.21;55.57;101615.75;5057875;27;100750;-72
2021/10/13 04:38:36;;;;;;;1999.90;999.90;;;;;;;1.15;56.08;101610.06;5056872;27;100853;-69
2021/10/13 04:41:04;;;;;;;1999.90;999.90;;;;;;;1.08;56.01;101613.97;5059857;27;98406;-72
2021/10/13 04:43:32;;;;;;;1999.90;999.90;;;;;;;1.04;56.54;101624.09;5058493;27;97490;-70
2021/10/13 04:46:00;;;;;;;1999.90;999.90;;;;;;;0.99;56.09;101620.25;5040949;27;98756;-72
2021/10/13 04:48:28;;;;;;;1999.90;999.90;;;;;;;1.00;55.76;101624.69;5058138;27;100550;-71
2021/10/13 04:50:57;;;;;;;1999.90;999.90;;;;;;;0.98;56.01;101619.34;5060111;27;98070;-70
2021/10/13 04:53:26;;;;;;;1999.90;999.90;;;;;;;0.98;56.48;101626.28;5057172;27;97518;-70
2021/10/13 04:55:54;;;;;;;1999.90;999.90;;;;;;;0.95;56.30;101621.75;5059389;27;100414;-70
2021/10/13 04:58:22;;;;;;;1999.90;999.90;;;;;;;0.91;55.99;101622.31;5056570;27;97755;-69
2021/10/13 05:00:50;;;;;;;1999.90;999.90;;;;;;;0.88;56.76;101624.72;5041678;27;97034;-70
2021/10/13 05:03:18;;;;;;;1999.90;999.90;;;;;;;0.87;56.58;101627.19;5058914;27;97799;-70
2021/10/13 05:05:46;;;;;;;1999.90;999.90;;;;;;;0.87;56.61;101624.56;5056601;27;98914;-70
2021/10/13 05:08:15;;;;;;;1999.90;999.90;;;;;;;0.86;56.83;101620.16;5056482;27;97659;-70
2021/10/13 05:10:44;;;;;;;1999.90;999.90;;;;;;;0.88;56.75;101624.72;5036685;27;97733;-71
2021/10/13 05:13:11;;;;;;;1999.90;999.90;;;;;;;0.86;57.20;101628.00;5055762;27;96947;-72
2021/10/13 05:15:40;;;;;;;1999.90;999.90;;;;;;;0.82;57.47;101625.97;5072224;27;98088;-72
2021/10/13 05:18:10;;;;;;;1999.90;999.90;;;;;;;0.80;57.56;101635.41;5038827;27;100175;-72
2021/10/13 05:20:38;;;;;;;1999.90;999.90;;;;;;;0.81;56.49;101637.25;5055044;27;97635;-72
2021/10/13 05:23:06;;;;;;;1999.90;999.90;;;;;;;0.82;56.82;101639.06;5040067;27;96850;-71
2021/10/13 05:25:36;;;;;;;1999.90;999.90;;;;;;;0.83;56.88;101638.28;5056761;27;100666;-70
2021/10/13 05:28:04;;;;;;;1999.90;999.90;;;;;;;0.83;57.08;101640.91;5058020;27;97836;-71
2021/10/13 05:30:32;;;;;;;1999.90;999.90;;;;;;;0.81;57.38;101643.38;5059093;27;97674;-71
2021/10/13 05:33:00;;;;;;;1999.90;999.90;;;;;;;0.78;57.35;101642.25;5057387;27;97009;-71
2021/10/13 05:35:28;;;;;;;1999.90;999.90;;;;;;;0.75;57.47;101648.19;5057100;27;97687;-70
2021/10/13 05:37:56;;;;;;;1999.90;999.90;;;;;;;0.75;57.49;101656.03;5072696;27;99335;-72
2021/10/13 05:40:24;;;;;;;1999.90;999.90;;;;;;;0.75;57.53;101647.28;5059738;27;97894;-71
2021/10/13 05:42:53;;;;;;;1999.90;999.90;;;;;;;0.74;57.11;101655.94;5039865;27;97615;-70
2021/10/13 05:45:21;;;;;;;1999.90;999.90;;;;;;;0.77;57.30;101662.31;5054531;27;99293;-70
2021/10/13 05:47:49;;;;;;;1999.90;999.90;;;;;;;0.77;57.12;101664.00;5039827;27;98789;-71
2021/10/13 05:50:17;;;;;;;1999.90;999.90;;;;;;;0.73;57.68;101661.97;5057217;27;97739;-70
2021/10/13 05:52:44;;;;;;;1999.90;999.90;;;;;;;0.73;57.18;101669.81;5055442;27;97641;-70
2021/10/13 05:55:28;;;;;;;1999.90;999.90;;;;;;;0.75;57.13;101670.84;5040914;27;99654;-70
2021/10/13 05:57:57;;;;;;;1999.90;999.90;;;;;;;0.74;57.42;101669.91;5038978;27;99543;-70
2021/10/13 06:00:27;;;;;;;1999.90;999.90;;;;;;;0.73;57.30;101685.53;5040581;27;98715;-69
2021/10/13 06:02:56;;;;;;;1999.90;999.90;;;;;;;0.73;57.33;101686.44;5054882;27;96968;-69
2021/10/13 06:05:23;;;;;;;1999.90;999.90;;;;;;;0.73;57.54;101698.63;5056410;27;99495;-70
2021/10/13 06:07:51;;;;;;;1999.90;999.90;;;;;;;0.74;57.40;101700.47;5037369;27;99632;-70
2021/10/13 06:10:19;;;;;;;1999.90;999.90;;;;;;;0.74;57.61;101696.13;5040580;27;98333;-70
2021/10/13 06:12:47;;;;;;;1999.90;999.90;;;;;;;0.75;57.59;101697.03;5056639;27;97230;-69
2021/10/13 06:15:17;;;;;;;1999.90;999.90;;;;;;;0.79;57.75;101701.72;5041506;27;98696;-70
2021/10/13 06:17:44;;;;;;;1999.90;999.90;;;;;;;0.82;57.33;101701.94;5060291;27;99372;-68
2021/10/13 06:20:12;;;;;;;1999.90;999.90;;;;;;;0.84;58.38;101705.56;5043813;27;97220;-69
2021/10/13 06:22:40;;;;;;;1999.90;999.90;;;;;;;0.89;57.63;101714.69;5044533;27;98956;-70
2021/10/13 06:25:09;;;;;;;1999.90;999.90;;;;;;;0.94;57.15;101708.09;5043870;27;99244;-70
2021/10/13 06:27:36;;;;;;;1999.90;999.90;;;;;;;0.99;57.16;101715.50;5060443;27;99172;-71
2021/10/13 06:30:05;;;;;;;1999.90;999.90;;;;;;;1.04;57.39;101719.38;5062369;27;98061;-71
2021/10/13 06:32:35;;;;;;;1999.90;999.90;;;;;;;1.05;58.01;101715.94;5059902;27;97564;-71
2021/10/13 06:35:03;;;;;;;1999.90;999.90;;;;;;;1.10;57.41;101718.91;5060985;27;98695;-70
2021/10/13 06:37:31;;;;;;;1999.90;999.90;;;;;;;1.15;57.11;101728.03;5059097;27;100636;-70
2021/10/13 06:39:59;;;;;;;1999.90;999.90;;;;;;;1.18;57.76;101731.78;5061191;27;97836;-71
2021/10/13 06:42:27;;;;;;;1999.90;999.90;;;;;;;1.24;57.25;101728.69;5062091;27;96990;-69
2021/10/13 06:44:54;;;;;;;1999.90;999.90;;;;;;;1.27;57.66;101726.28;5079105;27;99664;-71
2021/10/13 06:47:22;;;;;;;1999.90;999.90;;;;;;;1.31;57.33;101736.19;5059342;27;97576;-70
2021/10/13 06:49:51;;;;;;;1999.90;999.90;;;;;;;1.34;57.61;101738.16;5044013;27;96863;-70
2021/10/13 06:52:19;;;;;;;1999.90;999.90;;;;;;;1.35;57.98;101732.09;5061523;27;97193;-69
2021/10/13 06:54:47;;;;;;;1999.90;999.90;;;;;;;1.38;57.71;101735.84;5042163;27;97062;-70
2021/10/13 06:57:15;;;;;;;1999.90;999.90;;;;;;;1.45;57.10;101730.25;5060057;27;98122;-72
2021/10/13 06:59:43;;;;;;;1999.90;999.90;;;;;;;1.51;57.46;101743.81;5063669;27;97546;-69
2021/10/13 07:02:10;;;;;;;1999.90;999.90;;;;;;;1.54;57.74;101741.44;5044580;27;97602;-69
2021/10/13 07:04:38;;;;;;;1999.90;999.90;;;;;;;1.54;57.45;101737.88;5059234;27;99679;-68
2021/10/13 07:07:08;;;;;;;1999.90;999.90;;;;;;;1.57;58.19;101743.34;5042040;27;98741;-68
2021/10/13 07:09:36;;;;;;;1999.90;999.90;;;;;;;1.56;58.03;101737.19;5061685;27;97367;-69
2021/10/13 07:12:04;;;;;;;1999.90;999.90;;;;;;;1.62;57.43;101750.75;5060889;27;97398;-70
2021/10/13 07:14:32;;;;;;;1999.90;999.90;;;;;;;1.68;57.28;101745.94;5042564;27;100622;-68
2021/10/13 07:17:00;;;;;;;1999.90;999.90;;;;;;;1.73;57.48;101747.19;5059560;27;97631;-69
2021/10/13 07:19:28;;;;;;;1999.90;999.90;;;;;;;1.79;56.41;101742.38;5061074;27;97333;-69
2021/10/13 07:21:55;;;;;;;1999.90;999.90;;;;;;;1.80;57.37;101749.44;5043558;27;97588;-69
2021/10/13 07:24:24;;;;;;;1999.90;999.90;;;;;;;1.83;56.51;101744.44;5058845;27;97143;-69
2021/10/13 07:26:52;;;;;;;1999.90;999.90;;;;;;;1.90;56.94;101751.94;5041921;27;99440;-69
2021/10/13 07:29:20;;;;;;;1999.90;999.90;;;;;;;1.95;56.80;101755.78;5061955;27;96725;-69
2021/10/13 07:31:48;;;;;;;1999.90;999.90;;;;;;;1.99;57.12;101763.09;5059617;27;97250;-70
2021/10/13 07:34:16;;;;;;;1999.90;999.90;;;;;;;2.02;57.01;101760.66;5059330;27;99464;-73
2021/10/13 07:36:44;;;;;;;1999.90;999.90;;;;;;;2.08;56.65;101763.72;5058931;27;98375;-69
2021/10/13 07:39:12;;;;;;;1999.90;999.90;;;;;;;2.13;56.84;101765.00;5058595;27;97928;-70
2021/10/13 07:41:41;;;;;;;1999.90;999.90;;;;;;;2.20;56.67;101756.75;5060517;27;96940;-69
2021/10/13 07:44:08;;;;;;;1999.90;999.90;;;;;;;2.25;56.09;101756.16;5058105;27;98292;-70
2021/10/13 07:46:36;;;;;;;1999.90;999.90;;;;;;;2.28;56.87;101766.84;5040896;27;98377;-69
2021/10/13 07:49:04;;;;;;;1999.90;999.90;;;;;;;2.31;56.66;101760.09;5057460;27;98081;-69
2021/10/13 07:51:32;;;;;;;1999.90;999.90;;;;;;;2.30;57.18;101765.25;5059988;27;97138;-70
2021/10/13 07:54:00;;;;;;;1999.90;999.90;;;;;;;2.32;57.53;101768.91;5058067;27;100497;-68
2021/10/13 07:56:28;;;;;;;1999.90;999.90;;;;;;;2.32;57.06;101767.19;5056997;27;100669;-70
2021/10/13 07:58:57;;;;;;;1999.90;999.90;;;;;;;2.27;57.88;101772.94;5059504;27;97274;-69
2021/10/13 08:01:25;;;;;;;1999.90;999.90;;;;;;;2.35;57.20;101770.03;5061065;27;97236;-69
2021/10/13 08:03:55;;;;;;;1999.90;999.90;;;;;;;2.38;57.04;101767.63;5056768;27;100304;-71
2021/10/13 08:06:22;;;;;;;1999.90;999.90;;;;;;;2.73;56.08;101764.81;5051643;27;100270;-70
2021/10/13 08:08:50;;;;;;;1999.90;999.90;;;;;;;2.64;57.20;101769.41;5058727;27;97297;-69
2021/10/13 08:11:18;;;;;;;1999.90;999.90;;;;;;;2.63;57.69;101768.50;5059415;27;97591;-70
2021/10/13 08:13:46;;;;;;;1999.90;999.90;;;;;;;2.66;56.98;101763.44;5041219;27;99439;-70
2021/10/13 08:16:15;;;;;;;1999.90;999.90;;;;;;;2.65;57.62;101766.91;5059334;27;96735;-71
2021/10/13 08:18:43;;;;;;;1999.90;999.90;;;;;;;2.71;57.53;101776.91;5059423;27;97836;-70
2021/10/13 08:21:11;;;;;;;1999.90;999.90;;;;;;;2.73;57.66;101768.31;5042332;27;97822;-71
2021/10/13 08:23:39;;;;;;;1999.90;999.90;;;;;;;2.75;57.08;101769.34;5056416;27;99096;-71
2021/10/13 08:26:07;;;;;;;1999.90;999.90;;;;;;;2.82;57.19;101770.69;5056862;27;98049;-72
2021/10/13 08:28:35;;;;;;;1999.90;999.90;;;;;;;2.88;57.08;101763.19;5059821;27;97158;-72
2021/10/13 08:31:03;;;;;;;1999.90;999.90;;;;;;;2.97;56.98;101776.94;5061763;27;97269;-70
2021/10/13 08:33:32;;;;;;;1999.90;999.90;;;;;;;3.03;57.05;101783.56;5040719;27;97957;-70
2021/10/13 08:36:00;;;;;;;1999.90;999.90;;;;;;;3.12;56.21;101785.88;5056120;27;101577;-70
2021/10/13 08:38:28;;;;;;;1999.90;999.90;;;;;;;3.17;57.01;101792.34;5056134;27;97766;-70
2021/10/13 08:40:56;;;;;;;1999.90;999.90;;;;;;;3.25;55.66;101785.88;5057890;27;97192;-70
2021/10/13 08:43:24;;;;;;;1999.90;999.90;;;;;;;3.34;55.97;101790.84;5040181;27;98527;-71
2021/10/13 08:45:51;;;;;;;1999.90;999.90;;;;;;;3.38;56.05;101791.16;5056640;27;100514;-72
2021/10/13 08:48:19;;;;;;;1999.90;999.90;;;;;;;3.41;56.13;101793.06;5058690;27;98387;-70
2021/10/13 08:50:49;;;;;;;1999.90;999.90;;;;;;;3.43;55.98;101792.34;5058828;27;97002;-71
2021/10/13 08:53:20;;;;;;;1999.90;999.90;;;;;;;3.47;56.63;101804.00;5057050;27;98895;-71
2021/10/13 08:55:49;;;;;;;1999.90;999.90;;;;;;;3.54;55.76;101799.22;5057552;27;98813;-71
2021/10/13 08:58:18;;;;;;;1999.90;999.90;;;;;;;3.57;56.15;101796.78;5058954;27;99519;-71
2021/10/13 09:00:48;;;;;;;1999.90;999.90;;;;;;;3.64;55.40;101799.00;5039725;27;97817;-72
2021/10/13 09:03:27;;;;;;;1999.90;999.90;;;;;;;3.67;56.06;101793.06;5039776;27;100926;-72
2021/10/13 09:05:56;;;;;;;1999.90;999.90;;;;;;;3.71;56.19;101801.28;5058933;27;98862;-71
2021/10/13 09:08:24;;;;;;;1999.90;999.90;;;;;;;3.77;55.44;101799.03;5058499;27;98639;-71
2021/10/13 09:10:55;;;;;;;1999.90;999.90;;;;;;;3.81;55.69;101792.22;5056883;27;96825;-71
2021/10/13 09:13:23;;;;;;;1999.90;999.90;;;;;;;3.88;55.40;101789.19;5056928;27;99442;-71
2021/10/13 09:15:53;;;;;;;1999.90;999.90;;;;;;;3.97;55.58;101803.84;5040500;27;99488;-72
2021/10/13 09:18:22;;;;;;;1999.90;999.90;;;;;;;4.01;55.91;101803.25;5056224;27;97300;-71
2021/10/13 09:20:51;;;;;;;1999.90;999.90;;;;;;;4.10;55.04;101803.81;5056815;27;96969;-71
2021/10/13 09:23:27;;;;;;;1999.90;999.90;;;;;;;4.17;55.29;101807.78;5058811;27;97480;-71
2021/10/13 09:26:04;;;;;;;1999.90;999.90;;;;;;;4.27;55.04;101801.31;5058106;27;98315;-71
2021/10/13 09:28:35;;;;;;;1999.90;999.90;;;;;;;4.38;54.50;101802.91;5047908;27;97785;-72
2021/10/13 09:31:15;;;;;;;1999.90;999.90;;;;;;;4.45;54.80;101797.19;5057435;27;97603;-71
2021/10/13 09:33:58;;;;;;;1999.90;999.90;;;;;;;4.51;54.78;101803.78;5058928;27;98484;-72
2021/10/13 09:36:33;;;;;;;1999.90;999.90;;;;;;;4.57;54.63;101808.50;5054755;27;98010;-72
2021/10/13 09:39:10;;;;;;;1999.90;999.90;;;;;;;4.63;55.02;101798.31;5072904;27;97990;-69
2021/10/13 09:41:59;;;;;;;1999.90;999.90;;;;;;;4.68;54.79;101802.19;5055915;27;97530;-72
2021/10/13 09:44:27;;;;;;;1999.90;999.90;;;;;;;4.74;54.04;101803.44;5053996;27;99314;-71
2021/10/13 09:46:59;;;;;;;1999.90;999.90;;;;;;;4.80;54.26;101802.91;5055771;27;100506;-70
2021/10/13 09:49:29;;;;;;;1999.90;999.90;;;;;;;4.86;53.83;101811.19;5055969;27;97537;-70
2021/10/13 09:52:05;;;;;;;1999.90;999.90;;;;;;;4.90;53.65;101813.22;5056412;27;97432;-71
2021/10/13 09:54:35;;;;;;;1999.90;999.90;;;;;;;4.93;53.63;101810.75;5053445;27;100624;-70
2021/10/13 09:57:21;;;;;;;1999.90;999.90;;;;;;;4.96;54.06;101810.91;5054278;27;99111;-71
2021/10/13 10:00:04;;;;;;;1999.90;999.90;;;;;;;5.00;53.69;101815.56;5056408;27;97260;-70
2021/10/13 10:02:34;;;;;;;1999.90;999.90;;;;;;;5.10;53.15;101823.25;5056240;27;97167;-70
2021/10/13 10:05:05;;;;;;;1999.90;999.90;;;;;;;5.17;53.43;101806.97;5054902;27;97794;-70
2021/10/13 10:07:33;;;;;;;1999.90;999.90;;;;;;;5.23;53.20;101811.69;5054957;27;99160;-71
2021/10/13 10:10:10;;;;;;;1999.90;999.90;;;;;;;5.32;53.13;101812.25;5055763;27;98690;-70
2021/10/13 10:13:01;;;;;;;1999.90;999.90;;;;;;;5.37;53.35;101809.03;5056883;27;96902;-70
2021/10/13 10:15:31;;;;;;;1999.90;999.90;;;;;;;5.40;52.69;101811.84;5038008;27;99149;-71
2021/10/13 10:18:00;;;;;;;1999.90;999.90;;;;;;;5.45;52.80;101812.13;5055666;27;100710;-71
2021/10/13 10:20:36;;;;;;;1999.90;999.90;;;;;;;5.52;52.68;101815.19;5037610;27;97689;-70
2021/10/13 10:23:30;;;;;;;1999.90;999.90;;;;;;;5.48;52.68;101815.88;5053599;27;98681;-70
2021/10/13 10:26:01;;;;;;;1999.90;999.90;;;;;;;5.51;52.64;101816.03;5071457;27;97752;-70
2021/10/13 10:28:54;;;;;;;1999.90;999.90;;;;;;;5.52;53.08;101809.03;5056105;27;98119;-69
2021/10/13 10:31:41;;;;;;;1999.90;999.90;;;;;;;5.55;52.49;101814.47;5056504;27;97303;-68
2021/10/13 10:34:15;;;;;;;1999.90;999.90;;;;;;;5.61;52.59;101809.56;5056326;27;97574;-70
2021/10/13 10:37:12;;;;;;;1999.90;999.90;;;;;;;5.61;52.61;101812.19;5056982;27;97609;-71
2021/10/13 10:39:57;;;;;;;1999.90;999.90;;;;;;;5.61;52.98;101813.06;5057044;27;97401;-71
2021/10/13 10:42:50;;;;;;;1999.90;999.90;;;;;;;5.66;52.17;101811.63;5055543;27;96935;-71
2021/10/13 10:45:19;;;;;;;1999.90;999.90;;;;;;;5.74;52.30;101817.34;5039035;27;97147;-70
2021/10/13 10:47:52;;;;;;;1999.90;999.90;;;;;;;5.81;52.24;101806.31;5055094;27;99311;-71
2021/10/13 10:50:38;;;;;;;1999.90;999.90;;;;;;;5.82;52.16;101803.75;5057005;27;97578;-70
2021/10/13 10:53:24;;;;;;;1999.90;999.90;;;;;;;5.87;52.01;101812.84;5057167;27;97341;-72
2021/10/13 10:55:52;;;;;;;1999.90;999.90;;;;;;;5.96;51.93;101805.44;5056858;27;97378;-72
2021/10/13 10:58:23;;;;;;;1999.90;999.90;;;;;;;6.04;51.79;101806.78;5055867;27;98601;-71
2021/10/13 11:01:11;;;;;;;1999.90;999.90;;;;;;;6.08;51.56;101800.84;5057181;27;97928;-72
2021/10/13 11:03:40;;;;;;;1999.90;999.90;;;;;;;6.06;51.56;101802.50;5060967;27;97858;-72
2021/10/13 11:06:14;;;;;;;1999.90;999.90;;;;;;;6.05;51.20;101802.41;5058680;27;97202;-71
2021/10/13 11:08:53;;;;;;;1999.90;999.90;;;;;;;6.07;51.16;101806.94;5059167;27;97447;-72